Terminal Aerodrome Forecast
Issued by NWS Wilmington, OH

Home | Current Version | Previous Version | Text Only | Print | Product List | Glossary On
Versions: 1 2 3 4 5 6 7 8 9 10 11 12 13 14 15 16 17 18 19 20 21 22 23 24 25 26 27
000
FTUS41 KILN 262100 AAA
TAFCVG
TAF AMD
KCVG 262101Z 2621/2724 32011KT P6SM BKN015 OVC022
     FM262300 32009KT P6SM OVC025
     FM270300 34007KT P6SM SCT035 BKN150
     FM271200 34010KT P6SM VCSH BKN025
     FM271700 34012G22KT P6SM VCSH BKN035=

USA.gov is the U.S. government's official web portal to all federal, state and local government web resources and services.